Time;durP1;ratioP1;P1;durP2;ratioP2;P2;SDS_P1;SDS_P2;PMS_P1;PMS_P2;Temp;Humidity;BMP_temperature;BMP_pressure;BME280_temperature;BME280_humidity;BME280_pressure;Samples;Min_cycle;Max_cycle;Signal;HPM_P1;HPM_P2
2023/01/02 00:01:19;;;;;;;4.53;1.85;;;;;;;;;;5027440;28;20045;-79
2023/01/02 00:03:46;;;;;;;3.47;1.60;;;;;;;;;;5026276;28;20072;-79
2023/01/02 00:06:13;;;;;;;5.30;1.80;;;;;;;;;;5026299;28;20473;-79
2023/01/02 00:08:39;;;;;;;3.97;1.67;;;;;;;;;;5027060;28;20045;-79
2023/01/02 00:11:06;;;;;;;5.80;1.65;;;;;;;;;;5026392;28;20049;-79
2023/01/02 00:13:32;;;;;;;3.97;1.80;;;;;;;;;;5026390;28;20133;-79
2023/01/02 00:15:58;;;;;;;3.28;1.30;;;;;;;;;;5019636;28;20149;-78
2023/01/02 00:18:25;;;;;;;3.58;1.52;;;;;;;;;;5017710;28;20457;-79
2023/01/02 00:20:51;;;;;;;4.13;1.10;;;;;;;;;;5024987;28;20479;-78
2023/01/02 00:23:18;;;;;;;3.70;1.35;;;;;;;;;;5024734;28;20172;-76
2023/01/02 00:25:46;;;;;;;3.25;1.40;;;;;;;;;;5006823;28;20076;-79
2023/01/02 00:28:12;;;;;;;4.70;1.55;;;;;;;;;;5012309;28;20071;-78
2023/01/02 00:30:39;;;;;;;3.65;1.40;;;;;;;;;;5026338;28;20147;-78
2023/01/02 00:33:05;;;;;;;2.65;1.15;;;;;;;;;;5006906;28;20445;-77
2023/01/02 00:35:32;;;;;;;2.88;1.38;;;;;;;;;;5024469;28;20053;-78
2023/01/02 00:37:58;;;;;;;3.67;1.27;;;;;;;;;;5026175;28;20433;-77
2023/01/02 00:40:25;;;;;;;2.90;1.20;;;;;;;;;;5025629;28;20571;-78
2023/01/02 00:42:51;;;;;;;3.28;1.42;;;;;;;;;;5006674;28;20046;-78
2023/01/02 00:45:18;;;;;;;2.40;1.17;;;;;;;;;;5026091;28;20064;-77
2023/01/02 00:47:44;;;;;;;3.88;1.30;;;;;;;;;;5027256;28;20157;-78
2023/01/02 00:50:10;;;;;;;1.98;1.00;;;;;;;;;;5017522;28;20053;-77
2023/01/02 00:52:37;;;;;;;2.88;1.27;;;;;;;;;;5024577;28;20053;-78
2023/01/02 00:55:04;;;;;;;2.50;1.10;;;;;;;;;;5036769;28;20057;-77
2023/01/02 00:57:30;;;;;;;2.78;1.17;;;;;;;;;;5045091;28;20053;-77
2023/01/02 00:59:56;;;;;;;2.90;1.25;;;;;;;;;;5013453;28;20056;-77
2023/01/02 01:02:23;;;;;;;4.75;1.10;;;;;;;;;;5003705;28;20049;-78
2023/01/02 01:04:49;;;;;;;5.90;1.33;;;;;;;;;;5022429;28;20496;-77
2023/01/02 01:07:16;;;;;;;4.68;1.30;;;;;;;;;;5024671;28;20053;-77
2023/01/02 01:09:42;;;;;;;1.80;1.02;;;;;;;;;;5025252;28;20049;-77
2023/01/02 01:12:09;;;;;;;3.03;1.20;;;;;;;;;;5026063;28;20440;-78
2023/01/02 01:14:35;;;;;;;2.08;0.88;;;;;;;;;;5026929;28;20632;-78
2023/01/02 01:17:01;;;;;;;3.00;1.17;;;;;;;;;;5028728;28;20068;-78
2023/01/02 01:19:32;;;;;;;4.95;1.33;;;;;;;;;;5026855;28;20642;-78
2023/01/02 01:21:58;;;;;;;3.17;1.08;;;;;;;;;;5026916;28;20719;-78
2023/01/02 01:24:25;;;;;;;5.20;1.27;;;;;;;;;;5026268;28;20646;-78
2023/01/02 01:26:51;;;;;;;3.22;1.13;;;;;;;;;;5026643;28;20055;-78
2023/01/02 01:29:18;;;;;;;4.43;1.10;;;;;;;;;;5028039;28;20057;-78
2023/01/02 01:31:45;;;;;;;2.35;1.13;;;;;;;;;;5011828;28;20059;-78
2023/01/02 01:34:11;;;;;;;3.78;1.20;;;;;;;;;;5020199;28;20060;-78
2023/01/02 01:36:38;;;;;;;3.55;1.27;;;;;;;;;;5027024;28;21027;-78
2023/01/02 01:39:05;;;;;;;2.97;1.20;;;;;;;;;;5026882;28;20106;-78
2023/01/02 01:41:31;;;;;;;5.82;1.40;;;;;;;;;;5026453;28;20055;-78
2023/01/02 01:43:59;;;;;;;5.63;1.38;;;;;;;;;;5025928;28;20128;-78
2023/01/02 01:46:30;;;;;;;4.20;1.35;;;;;;;;;;5027534;28;20049;-78
2023/01/02 01:49:17;;;;;;;5.60;1.30;;;;;;;;;;5027873;28;20508;-77
2023/01/02 01:51:51;;;;;;;3.63;1.23;;;;;;;;;;5019871;28;20053;-77
2023/01/02 01:54:19;;;;;;;6.53;1.50;;;;;;;;;;5008277;28;20049;-78
2023/01/02 01:56:47;;;;;;;6.43;1.50;;;;;;;;;;5026771;28;20069;-76
2023/01/02 01:59:14;;;;;;;6.05;1.55;;;;;;;;;;5026854;28;20080;-78
2023/01/02 02:01:41;;;;;;;3.45;1.50;;;;;;;;;;5030131;28;20050;-77
2023/01/02 02:04:10;;;;;;;8.02;1.33;;;;;;;;;;5026070;28;20053;-78
2023/01/02 02:06:36;;;;;;;4.32;1.35;;;;;;;;;;5029072;28;20053;-78
2023/01/02 02:09:05;;;;;;;3.85;1.63;;;;;;;;;;5029069;28;20057;-78
2023/01/02 02:11:31;;;;;;;5.57;1.65;;;;;;;;;;5026054;28;20049;-77
2023/01/02 02:13:58;;;;;;;3.50;1.20;;;;;;;;;;5025780;28;20053;-77
2023/01/02 02:16:40;;;;;;;5.18;1.80;;;;;;;;;;5009171;28;20071;-77
2023/01/02 02:19:07;;;;;;;5.80;1.55;;;;;;;;;;5026638;28;20454;-77
2023/01/02 02:21:52;;;;;;;6.70;1.30;;;;;;;;;;5026358;28;20558;-78
2023/01/02 02:24:31;;;;;;;6.82;1.30;;;;;;;;;;5033530;28;20045;-78
2023/01/02 02:27:00;;;;;;;3.80;1.48;;;;;;;;;;5029245;28;20053;-77
2023/01/02 02:29:50;;;;;;;3.10;1.20;;;;;;;;;;5029254;28;20059;-78
2023/01/02 02:32:25;;;;;;;2.65;1.25;;;;;;;;;;5017000;28;20071;-77
2023/01/02 02:34:54;;;;;;;3.57;1.20;;;;;;;;;;5030670;28;20160;-77
2023/01/02 02:37:26;;;;;;;3.60;1.52;;;;;;;;;;5030463;28;20045;-78
2023/01/02 02:39:58;;;;;;;9.68;1.63;;;;;;;;;;5032536;28;20505;-77
2023/01/02 02:42:36;;;;;;;6.38;1.45;;;;;;;;;;5016735;28;20153;-77
2023/01/02 02:45:02;;;;;;;3.95;1.40;;;;;;;;;;5039489;28;20132;-77
2023/01/02 02:47:34;;;;;;;3.78;1.45;;;;;;;;;;5033398;28;20761;-77
2023/01/02 02:50:09;;;;;;;4.72;1.60;;;;;;;;;;5037598;28;20053;-77
2023/01/02 02:52:45;;;;;;;8.85;1.45;;;;;;;;;;5021965;28;20065;-77
2023/01/02 02:55:11;;;;;;;;;;;;;;;;;;5033821;28;20060;-76
2023/01/02 02:57:37;;;;;;;;;;;;;;;;;;5029197;28;20296;-77
2023/01/02 03:00:05;;;;;;;4.03;1.50;;;;;;;;;;5029210;28;19925;-77
2023/01/02 03:02:32;;;;;;;7.28;1.33;;;;;;;;;;5027328;28;20504;-78
2023/01/02 03:05:01;;;;;;;6.50;1.42;;;;;;;;;;5022636;28;20175;-76
2023/01/02 03:07:27;;;;;;;2.47;1.27;;;;;;;;;;5003274;28;20054;-77
2023/01/02 03:09:56;;;;;;;4.90;1.23;;;;;;;;;;5017793;28;20049;-77
2023/01/02 03:12:41;;;;;;;3.65;1.20;;;;;;;;;;5026836;28;20068;-76
2023/01/02 03:15:23;;;;;;;5.05;1.20;;;;;;;;;;5030283;28;20526;-79
2023/01/02 03:17:58;;;;;;;3.42;1.85;;;;;;;;;;5028503;28;20112;-77
2023/01/02 03:20:27;;;;;;;4.07;1.60;;;;;;;;;;5010105;28;20450;-76
2023/01/02 03:22:57;;;;;;;5.20;1.33;;;;;;;;;;5010281;28;20045;-77
2023/01/02 03:25:23;;;;;;;5.88;1.58;;;;;;;;;;5015998;28;20196;-77
2023/01/02 03:27:51;;;;;;;2.88;1.40;;;;;;;;;;5029261;28;20049;-78
2023/01/02 03:30:19;;;;;;;7.22;2.05;;;;;;;;;;5011095;28;20132;-77
2023/01/02 03:32:48;;;;;;;4.22;1.48;;;;;;;;;;5027827;28;20050;-77
2023/01/02 03:35:16;;;;;;;4.28;1.50;;;;;;;;;;5035205;28;20075;-76
2023/01/02 03:37:47;;;;;;;4.45;1.27;;;;;;;;;;5031994;28;20445;-78
2023/01/02 03:40:17;;;;;;;4.63;1.50;;;;;;;;;;5029411;28;20053;-77
2023/01/02 03:42:50;;;;;;;5.75;1.33;;;;;;;;;;5029465;28;20077;-78
2023/01/02 03:45:18;;;;;;;4.13;1.33;;;;;;;;;;5023791;28;20053;-77
2023/01/02 03:47:50;;;;;;;4.75;1.40;;;;;;;;;;5011610;28;20046;-78
2023/01/02 03:50:22;;;;;;;7.45;1.67;;;;;;;;;;5023202;28;20144;-77
2023/01/02 03:52:48;;;;;;;4.05;1.40;;;;;;;;;;5023777;28;20057;-79
2023/01/02 03:55:15;;;;;;;4.28;1.35;;;;;;;;;;5029484;28;20057;-76
2023/01/02 03:57:50;;;;;;;3.70;1.63;;;;;;;;;;5027517;28;20064;-78
2023/01/02 04:00:28;;;;;;;4.00;1.40;;;;;;;;;;5029211;28;20115;-78
2023/01/02 04:02:55;;;;;;;3.92;1.27;;;;;;;;;;5031796;28;20053;-79
2023/01/02 04:05:34;;;;;;;5.57;1.20;;;;;;;;;;5031134;28;20049;-78
2023/01/02 04:08:16;;;;;;;4.20;1.45;;;;;;;;;;5031597;28;20056;-79
2023/01/02 04:10:44;;;;;;;4.65;1.50;;;;;;;;;;5012341;28;20113;-77
2023/01/02 04:13:14;;;;;;;2.95;1.20;;;;;;;;;;5028461;28;20053;-77
2023/01/02 04:15:42;;;;;;;5.07;1.60;;;;;;;;;;5028602;28;20049;-78
2023/01/02 04:18:10;;;;;;;4.15;1.30;;;;;;;;;;5029639;28;20061;-78
2023/01/02 04:20:39;;;;;;;3.17;1.10;;;;;;;;;;5028434;28;20164;-78
2023/01/02 04:23:08;;;;;;;3.63;1.40;;;;;;;;;;5028552;28;20063;-77
2023/01/02 04:25:39;;;;;;;3.58;1.23;;;;;;;;;;5027608;28;20170;-79
2023/01/02 04:28:18;;;;;;;4.18;1.65;;;;;;;;;;5029505;28;20049;-78
2023/01/02 04:30:48;;;;;;;4.35;1.48;;;;;;;;;;5030059;28;20053;-76
2023/01/02 04:33:15;;;;;;;7.03;1.65;;;;;;;;;;5027229;28;20111;-78
2023/01/02 04:35:42;;;;;;;3.35;1.25;;;;;;;;;;5026915;28;20508;-78
2023/01/02 04:38:09;;;;;;;3.97;1.42;;;;;;;;;;5028495;28;20136;-77
2023/01/02 04:40:36;;;;;;;3.90;1.27;;;;;;;;;;5029193;28;20037;-78
2023/01/02 04:43:07;;;;;;;6.38;1.38;;;;;;;;;;5028640;28;20359;-77
2023/01/02 04:45:35;;;;;;;2.85;1.35;;;;;;;;;;5029235;28;20334;-77
2023/01/02 04:48:01;;;;;;;3.10;1.10;;;;;;;;;;5030746;28;20053;-76
2023/01/02 04:50:28;;;;;;;4.65;1.35;;;;;;;;;;5021369;28;20049;-76
2023/01/02 04:52:54;;;;;;;2.60;1.15;;;;;;;;;;5028415;28;20063;-78
2023/01/02 04:55:21;;;;;;;5.30;1.20;;;;;;;;;;5038879;28;20061;-77
2023/01/02 04:57:47;;;;;;;3.78;1.35;;;;;;;;;;5029834;28;20063;-78
2023/01/02 05:00:14;;;;;;;4.97;1.10;;;;;;;;;;5031902;28;20057;-76
2023/01/02 05:02:40;;;;;;;7.93;1.42;;;;;;;;;;5031296;28;20046;-80
2023/01/02 05:05:07;;;;;;;4.40;1.50;;;;;;;;;;5033504;28;20049;-79
2023/01/02 05:07:35;;;;;;;4.00;1.77;;;;;;;;;;5037226;28;20493;-79
2023/01/02 05:10:02;;;;;;;2.38;0.98;;;;;;;;;;5039799;28;20499;-79
2023/01/02 05:12:28;;;;;;;6.68;1.58;;;;;;;;;;5038081;28;20509;-77
2023/01/02 05:14:54;;;;;;;5.90;1.30;;;;;;;;;;5033128;28;20061;-78
2023/01/02 05:17:21;;;;;;;4.50;1.50;;;;;;;;;;5009898;28;20053;-75
2023/01/02 05:19:47;;;;;;;3.55;1.10;;;;;;;;;;5025544;28;20140;-75
2023/01/02 05:24:59;;;;;;;5.15;1.13;;;;;;;;;;5023564;28;20049;-74
2023/01/02 05:27:25;;;;;;;2.90;1.23;;;;;;;;;;5005999;28;20775;-76
2023/01/02 05:29:51;;;;;;;3.22;1.30;;;;;;;;;;5006219;28;20049;-77
2023/01/02 05:32:18;;;;;;;2.90;1.13;;;;;;;;;;5022319;28;20053;-76
2023/01/02 05:34:44;;;;;;;4.03;1.20;;;;;;;;;;5025188;28;20259;-76
2023/01/02 05:37:11;;;;;;;3.95;1.10;;;;;;;;;;5024979;28;20651;-76
2023/01/02 05:39:37;;;;;;;2.53;1.25;;;;;;;;;;5025707;28;20456;-77
2023/01/02 05:42:03;;;;;;;3.97;1.20;;;;;;;;;;5025337;28;20136;-77
2023/01/02 05:44:30;;;;;;;3.05;1.10;;;;;;;;;;5031053;28;20067;-77
2023/01/02 05:46:56;;;;;;;3.95;1.20;;;;;;;;;;5032310;28;20111;-77
2023/01/02 05:49:23;;;;;;;3.00;0.90;;;;;;;;;;5021379;28;20092;-77
2023/01/02 05:51:49;;;;;;;5.88;0.98;;;;;;;;;;5024072;28;20049;-77
2023/01/02 05:54:15;;;;;;;3.88;1.30;;;;;;;;;;5025002;28;20620;-77
2023/01/02 05:56:42;;;;;;;2.42;1.10;;;;;;;;;;5025858;28;20049;-77
2023/01/02 05:59:08;;;;;;;1.90;0.95;;;;;;;;;;5023913;28;20128;-78
2023/01/02 06:01:35;;;;;;;3.35;1.08;;;;;;;;;;5026805;28;20068;-78
2023/01/02 06:04:01;;;;;;;4.82;1.10;;;;;;;;;;5022121;28;20049;-76
2023/01/02 06:06:32;;;;;;;2.88;1.15;;;;;;;;;;5025327;28;20056;-78
2023/01/02 06:08:59;;;;;;;3.47;1.00;;;;;;;;;;5026583;28;20049;-77
2023/01/02 06:11:26;;;;;;;2.22;1.20;;;;;;;;;;5025587;28;20053;-78
2023/01/02 06:13:52;;;;;;;4.18;1.30;;;;;;;;;;5026020;28;20050;-77
2023/01/02 06:16:19;;;;;;;3.85;1.27;;;;;;;;;;4999170;28;20060;-78
2023/01/02 06:18:45;;;;;;;5.10;1.20;;;;;;;;;;5026451;28;20136;-79
2023/01/02 06:21:13;;;;;;;5.30;1.15;;;;;;;;;;5025636;28;20057;-78
2023/01/02 06:23:40;;;;;;;4.35;1.17;;;;;;;;;;5023435;28;20516;-77
2023/01/02 06:26:11;;;;;;;3.88;1.30;;;;;;;;;;5008996;28;20057;-77
2023/01/02 06:28:37;;;;;;;7.10;1.20;;;;;;;;;;5027713;28;20144;-77
2023/01/02 06:31:05;;;;;;;4.47;1.35;;;;;;;;;;5027406;28;20502;-78
2023/01/02 06:33:32;;;;;;;6.82;1.20;;;;;;;;;;5026474;28;20759;-77
2023/01/02 06:35:59;;;;;;;5.30;1.30;;;;;;;;;;5026350;28;20079;-78
2023/01/02 06:38:25;;;;;;;4.88;1.58;;;;;;;;;;5027883;28;20063;-78
2023/01/02 06:40:53;;;;;;;3.95;1.35;;;;;;;;;;5026656;28;20046;-76
2023/01/02 06:43:19;;;;;;;5.55;1.30;;;;;;;;;;5026358;28;20059;-76
2023/01/02 06:45:46;;;;;;;4.15;1.25;;;;;;;;;;5027466;28;20053;-77
2023/01/02 06:48:12;;;;;;;6.28;1.42;;;;;;;;;;5028226;28;20547;-78
2023/01/02 06:50:39;;;;;;;5.55;1.30;;;;;;;;;;5004489;28;20049;-78
2023/01/02 06:53:05;;;;;;;3.75;1.40;;;;;;;;;;5028089;28;20140;-77
2023/01/02 06:55:31;;;;;;;3.50;1.35;;;;;;;;;;5029849;28;20052;-79
2023/01/02 06:57:58;;;;;;;3.50;1.30;;;;;;;;;;5028884;28;20468;-78
2023/01/02 07:00:33;;;;;;;;;;;;;;;;;;5030856;28;20057;-78
2023/01/02 07:03:00;;;;;;;6.38;1.48;;;;;;;;;;5009788;28;19925;-78
2023/01/02 07:05:26;;;;;;;3.45;1.30;;;;;;;;;;5007053;28;20054;-77
2023/01/02 07:07:53;;;;;;;5.82;1.38;;;;;;;;;;5026226;28;20411;-78
2023/01/02 07:10:19;;;;;;;3.55;1.50;;;;;;;;;;5021575;28;20061;-79
2023/01/02 07:12:45;;;;;;;3.90;1.90;;;;;;;;;;5021519;28;20362;-78
2023/01/02 07:15:12;;;;;;;4.25;1.50;;;;;;;;;;5028482;28;20075;-78
2023/01/02 07:17:38;;;;;;;4.70;1.40;;;;;;;;;;5028524;28;20077;-77
2023/01/02 07:20:05;;;;;;;6.82;1.60;;;;;;;;;;5028118;28;20054;-79
2023/01/02 07:22:31;;;;;;;3.92;1.50;;;;;;;;;;5026959;28;20145;-78
2023/01/02 07:24:58;;;;;;;5.80;1.45;;;;;;;;;;5037577;28;20053;-78
2023/01/02 07:27:24;;;;;;;6.82;1.50;;;;;;;;;;5036089;28;20065;-78
2023/01/02 07:29:50;;;;;;;6.40;1.52;;;;;;;;;;5011630;28;20053;-79
2023/01/02 07:32:17;;;;;;;4.30;1.30;;;;;;;;;;5027428;28;20053;-76
2023/01/02 07:34:52;;;;;;;6.60;1.97;;;;;;;;;;5029639;28;20059;-78
2023/01/02 07:37:18;;;;;;;4.70;1.50;;;;;;;;;;5036989;28;20118;-78
2023/01/02 07:39:45;;;;;;;7.68;1.77;;;;;;;;;;5034041;28;20057;-79
2023/01/02 07:42:11;;;;;;;4.18;1.42;;;;;;;;;;5038195;28;20257;-79
2023/01/02 07:44:38;;;;;;;5.47;1.75;;;;;;;;;;5030495;28;20057;-78
2023/01/02 07:47:04;;;;;;;4.43;1.67;;;;;;;;;;5026656;28;20120;-77
2023/01/02 07:49:30;;;;;;;2.85;1.58;;;;;;;;;;5031381;28;20053;-76
2023/01/02 07:51:57;;;;;;;4.22;1.67;;;;;;;;;;5027374;28;20052;-77
2023/01/02 07:54:23;;;;;;;3.42;1.70;;;;;;;;;;5026411;28;20053;-78
2023/01/02 07:56:50;;;;;;;7.22;1.48;;;;;;;;;;5027071;28;20049;-78
2023/01/02 07:59:17;;;;;;;5.18;1.50;;;;;;;;;;5029269;28;20053;-78
2023/01/02 08:01:43;;;;;;;3.72;1.48;;;;;;;;;;5032921;28;20041;-78
2023/01/02 08:04:10;;;;;;;4.93;1.70;;;;;;;;;;5027971;28;20045;-78
2023/01/02 08:06:40;;;;;;;4.53;1.63;;;;;;;;;;5027883;28;20045;-77
2023/01/02 08:09:06;;;;;;;5.75;1.67;;;;;;;;;;5028645;28;20137;-78
2023/01/02 08:11:33;;;;;;;4.10;1.40;;;;;;;;;;5007778;28;20056;-77
2023/01/02 08:13:59;;;;;;;3.53;1.50;;;;;;;;;;5025070;28;20064;-77
2023/01/02 08:16:25;;;;;;;8.32;1.65;;;;;;;;;;5033219;28;20056;-77
2023/01/02 08:18:54;;;;;;;6.70;1.83;;;;;;;;;;5037876;28;20045;-77
2023/01/02 08:21:21;;;;;;;4.70;1.90;;;;;;;;;;5054626;28;20056;-77
2023/01/02 08:23:48;;;;;;;3.75;1.35;;;;;;;;;;5029909;28;20046;-78
2023/01/02 08:26:14;;;;;;;6.13;1.85;;;;;;;;;;5028740;28;20539;-76
2023/01/02 08:28:41;;;;;;;5.53;1.85;;;;;;;;;;5029297;28;20053;-78
2023/01/02 08:31:09;;;;;;;3.38;1.45;;;;;;;;;;5030631;28;20049;-78
2023/01/02 08:33:35;;;;;;;3.88;1.70;;;;;;;;;;5028923;28;20057;-77
2023/01/02 08:36:02;;;;;;;4.78;1.77;;;;;;;;;;5031766;28;20073;-78
2023/01/02 08:38:28;;;;;;;6.55;1.75;;;;;;;;;;5009733;28;20140;-78
2023/01/02 08:40:58;;;;;;;5.35;1.70;;;;;;;;;;5028861;28;20060;-77
2023/01/02 08:43:25;;;;;;;3.90;1.83;;;;;;;;;;5028810;28;20527;-80
2023/01/02 08:45:52;;;;;;;3.88;1.52;;;;;;;;;;5028604;28;20054;-77
2023/01/02 08:48:19;;;;;;;8.43;1.60;;;;;;;;;;5030130;28;20489;-77
2023/01/02 08:50:47;;;;;;;4.10;1.50;;;;;;;;;;5028841;28;20053;-75
2023/01/02 08:53:14;;;;;;;4.20;1.52;;;;;;;;;;5028352;28;20157;-78
2023/01/02 08:55:40;;;;;;;4.20;1.70;;;;;;;;;;5029660;28;20060;-76
2023/01/02 08:58:06;;;;;;;7.00;1.50;;;;;;;;;;5027920;28;20079;-77
2023/01/02 09:00:33;;;;;;;4.75;1.80;;;;;;;;;;5027980;28;20045;-77
2023/01/02 09:02:59;;;;;;;7.68;1.80;;;;;;;;;;5009274;28;20045;-78
2023/01/02 09:05:29;;;;;;;3.40;1.42;;;;;;;;;;5027803;28;20107;-78
2023/01/02 09:07:56;;;;;;;6.00;1.50;;;;;;;;;;5010341;28;20186;-78
2023/01/02 09:10:23;;;;;;;6.75;1.90;;;;;;;;;;5027220;28;20056;-78
2023/01/02 09:12:49;;;;;;;4.88;1.67;;;;;;;;;;5009632;28;20074;-78
2023/01/02 09:15:16;;;;;;;4.80;1.70;;;;;;;;;;5027464;28;20057;-77
2023/01/02 09:17:42;;;;;;;5.25;1.83;;;;;;;;;;5025856;28;20140;-77
2023/01/02 09:20:08;;;;;;;4.93;1.60;;;;;;;;;;5025656;28;20059;-77
2023/01/02 09:22:35;;;;;;;3.78;1.42;;;;;;;;;;5024147;28;20076;-78
2023/01/02 09:25:03;;;;;;;5.00;1.67;;;;;;;;;;5025563;28;20051;-79
2023/01/02 09:27:29;;;;;;;5.45;1.60;;;;;;;;;;5033687;28;20128;-76
2023/01/02 09:29:56;;;;;;;5.05;2.00;;;;;;;;;;5025558;28;20054;-77
2023/01/02 09:32:22;;;;;;;5.63;1.77;;;;;;;;;;5025055;28;20133;-77
2023/01/02 09:34:49;;;;;;;6.00;1.85;;;;;;;;;;5026571;28;20143;-78
2023/01/02 09:37:16;;;;;;;5.47;1.60;;;;;;;;;;5026067;28;20041;-78
2023/01/02 09:39:43;;;;;;;6.60;1.55;;;;;;;;;;5018382;28;20103;-77
2023/01/02 09:42:12;;;;;;;3.28;1.55;;;;;;;;;;5023746;28;20053;-77
2023/01/02 09:44:41;;;;;;;3.67;1.45;;;;;;;;;;5024098;28;20088;-78
2023/01/02 09:47:10;;;;;;;3.35;1.80;;;;;;;;;;5024815;28;20069;-78
2023/01/02 09:49:40;;;;;;;5.20;1.65;;;;;;;;;;5030056;28;20049;-77
2023/01/02 09:52:07;;;;;;;5.13;1.63;;;;;;;;;;5024782;28;20654;-77
2023/01/02 09:54:33;;;;;;;4.35;1.40;;;;;;;;;;5023514;28;20050;-77
2023/01/02 09:57:11;;;;;;;8.55;1.77;;;;;;;;;;5005033;28;20049;-78
2023/01/02 09:59:47;;;;;;;5.13;1.83;;;;;;;;;;5024732;28;20049;-78
2023/01/02 10:02:23;;;;;;;4.95;1.80;;;;;;;;;;5022307;28;20049;-75
2023/01/02 10:04:56;;;;;;;4.28;1.70;;;;;;;;;;5023928;28;20367;-77
2023/01/02 10:07:29;;;;;;;3.10;1.60;;;;;;;;;;5023874;28;20049;-78
2023/01/02 10:09:59;;;;;;;5.10;1.40;;;;;;;;;;5023363;28;20050;-77
2023/01/02 10:12:33;;;;;;;5.60;1.55;;;;;;;;;;5022947;28;20066;-77
2023/01/02 10:15:01;;;;;;;5.50;2.03;;;;;;;;;;5023754;28;20108;-78
2023/01/02 10:17:30;;;;;;;5.07;1.80;;;;;;;;;;5023206;28;20049;-77
2023/01/02 10:19:59;;;;;;;4.10;1.55;;;;;;;;;;5024813;28;20895;-78
2023/01/02 10:22:36;;;;;;;6.63;1.77;;;;;;;;;;5039471;28;20071;-78
2023/01/02 10:25:17;;;;;;;7.50;1.73;;;;;;;;;;5021457;28;20049;-78
2023/01/02 10:27:53;;;;;;;4.15;1.50;;;;;;;;;;5022816;28;20665;-78
2023/01/02 10:30:21;;;;;;;4.63;1.50;;;;;;;;;;5006388;28;20053;-78
2023/01/02 10:33:11;;;;;;;4.28;1.48;;;;;;;;;;5001463;28;20108;-78
2023/01/02 10:35:41;;;;;;;3.40;1.40;;;;;;;;;;4966515;28;20720;-78
2023/01/02 10:38:13;;;;;;;6.55;1.63;;;;;;;;;;5024506;28;20056;-77
2023/01/02 10:40:44;;;;;;;5.05;1.40;;;;;;;;;;5023577;28;20539;-78
2023/01/02 10:43:11;;;;;;;4.47;1.60;;;;;;;;;;5006330;28;20056;-78
2023/01/02 10:45:38;;;;;;;5.53;1.58;;;;;;;;;;5027284;28;20422;-78
2023/01/02 10:48:04;;;;;;;5.22;1.60;;;;;;;;;;5027403;28;20052;-78
2023/01/02 10:50:45;;;;;;;6.10;1.60;;;;;;;;;;5031101;28;20438;-77
2023/01/02 10:53:28;;;;;;;6.35;1.67;;;;;;;;;;5026865;28;20144;-77
2023/01/02 10:55:55;;;;;;;5.07;1.35;;;;;;;;;;5028817;28;20046;-77
2023/01/02 10:58:26;;;;;;;3.08;1.70;;;;;;;;;;5028195;28;20060;-77
2023/01/02 11:01:03;;;;;;;2.97;1.40;;;;;;;;;;5009746;28;20533;-78
2023/01/02 11:03:32;;;;;;;5.53;1.88;;;;;;;;;;5027500;28;20057;-77
2023/01/02 11:05:59;;;;;;;3.17;1.27;;;;;;;;;;5011396;28;20054;-77
2023/01/02 11:08:54;;;;;;;6.35;1.45;;;;;;;;;;5024172;28;20103;-77
2023/01/02 11:11:21;;;;;;;6.80;1.57;;;;;;;;;;5025709;28;20144;-77
2023/01/02 11:13:50;;;;;;;3.95;1.55;;;;;;;;;;5019663;28;20052;-77
2023/01/02 11:16:21;;;;;;;6.03;1.42;;;;;;;;;;5015965;28;20079;-79
2023/01/02 11:18:48;;;;;;;6.15;1.40;;;;;;;;;;5021926;28;20053;-77
2023/01/02 11:21:22;;;;;;;5.72;1.80;;;;;;;;;;5021765;28;20057;-77
2023/01/02 11:23:49;;;;;;;5.72;1.27;;;;;;;;;;5029052;28;20050;-77
2023/01/02 11:26:20;;;;;;;4.93;1.70;;;;;;;;;;5029562;28;20735;-76
2023/01/02 11:28:48;;;;;;;4.03;1.58;;;;;;;;;;5028885;28;20177;-76
2023/01/02 11:31:15;;;;;;;7.13;1.70;;;;;;;;;;5031014;28;20042;-78
2023/01/02 11:33:43;;;;;;;6.22;1.50;;;;;;;;;;5028533;28;20773;-78
2023/01/02 11:36:09;;;;;;;5.78;1.70;;;;;;;;;;5028458;28;20052;-78
2023/01/02 11:38:43;;;;;;;5.85;1.80;;;;;;;;;;5031834;28;20077;-78
2023/01/02 11:44:33;;;;;;;3.67;1.58;;;;;;;;;;5027857;28;20057;-76
2023/01/02 11:47:00;;;;;;;8.88;1.73;;;;;;;;;;5023361;28;20139;-76
2023/01/02 11:49:29;;;;;;;8.50;1.70;;;;;;;;;;5025602;28;20145;-79
2023/01/02 11:51:57;;;;;;;8.80;1.48;;;;;;;;;;5009263;28;20057;-79
2023/01/02 11:54:29;;;;;;;7.30;1.80;;;;;;;;;;5024727;28;20046;-79
2023/01/02 11:56:57;;;;;;;3.45;1.40;;;;;;;;;;5012326;28;20056;-77
2023/01/02 11:59:27;;;;;;;7.65;1.75;;;;;;;;;;5014760;28;20049;-76
2023/01/02 12:01:56;;;;;;;6.38;1.40;;;;;;;;;;5007291;28;20054;-76
2023/01/02 12:04:23;;;;;;;6.78;2.08;;;;;;;;;;5017514;28;20060;-76
2023/01/02 12:06:58;;;;;;;9.65;1.70;;;;;;;;;;5025756;28;20049;-79
2023/01/02 12:09:24;;;;;;;9.90;1.90;;;;;;;;;;5025832;28;20052;-76
2023/01/02 12:12:02;;;;;;;8.23;1.73;;;;;;;;;;5026539;28;20573;-77
2023/01/02 12:14:40;;;;;;;7.80;1.70;;;;;;;;;;5024361;28;20059;-77
2023/01/02 12:17:24;;;;;;;6.60;1.83;;;;;;;;;;5026081;28;20049;-78
2023/01/02 12:20:02;;;;;;;7.57;1.67;;;;;;;;;;5025421;28;20057;-76
2023/01/02 12:22:40;;;;;;;8.45;1.70;;;;;;;;;;5030258;28;20063;-76
2023/01/02 12:25:14;;;;;;;6.80;1.80;;;;;;;;;;5026278;28;20308;-76
2023/01/02 12:28:04;;;;;;;5.68;1.63;;;;;;;;;;5025686;28;20049;-77
2023/01/02 12:30:33;;;;;;;9.82;1.77;;;;;;;;;;4959499;28;20063;-78
2023/01/02 12:33:02;;;;;;;6.57;1.45;;;;;;;;;;5005076;28;20064;-78
2023/01/02 12:35:37;;;;;;;6.68;1.67;;;;;;;;;;5026045;28;20073;-78
2023/01/02 12:38:06;;;;;;;9.07;1.60;;;;;;;;;;5025576;28;20671;-78
2023/01/02 12:40:37;;;;;;;6.82;1.60;;;;;;;;;;5031010;28;20057;-78
2023/01/02 12:43:23;;;;;;;8.00;1.55;;;;;;;;;;5025534;28;20080;-78
2023/01/02 12:46:08;;;;;;;5.83;1.80;;;;;;;;;;5026708;28;20049;-79
2023/01/02 12:48:44;;;;;;;8.20;1.80;;;;;;;;;;5026873;28;20129;-78
2023/01/02 12:51:18;;;;;;;9.75;1.52;;;;;;;;;;5017820;28;20053;-78
2023/01/02 12:53:44;;;;;;;7.70;1.80;;;;;;;;;;5025743;28;20555;-78
2023/01/02 12:56:11;;;;;;;5.50;1.60;;;;;;;;;;5019288;28;20064;-78
2023/01/02 12:58:50;;;;;;;8.48;1.83;;;;;;;;;;5038329;28;20053;-78
2023/01/02 13:01:17;;;;;;;7.32;1.75;;;;;;;;;;5027482;28;20072;-78
2023/01/02 13:03:50;;;;;;;7.75;1.75;;;;;;;;;;5025061;28;20072;-78
2023/01/02 13:06:25;;;;;;;8.43;2.13;;;;;;;;;;5023744;28;20045;-76
2023/01/02 13:09:11;;;;;;;10.55;2.00;;;;;;;;;;5025505;28;20053;-78
2023/01/02 13:12:04;;;;;;;6.55;1.52;;;;;;;;;;5027166;28;20054;-78
2023/01/02 13:14:35;;;;;;;7.32;1.40;;;;;;;;;;5025432;28;20053;-77
2023/01/02 13:17:20;;;;;;;5.22;1.67;;;;;;;;;;5027117;28;20418;-77
2023/01/02 13:19:50;;;;;;;10.07;1.97;;;;;;;;;;5027462;28;20057;-77
2023/01/02 13:22:29;;;;;;;6.95;2.15;;;;;;;;;;5026294;28;20308;-78
2023/01/02 13:24:56;;;;;;;6.43;1.55;;;;;;;;;;5026217;28;20049;-78
2023/01/02 13:27:23;;;;;;;6.45;1.52;;;;;;;;;;5028125;28;20123;-78
2023/01/02 13:29:51;;;;;;;10.57;1.83;;;;;;;;;;5026123;28;20068;-77
2023/01/02 13:32:25;;;;;;;7.10;2.00;;;;;;;;;;5007624;28;20053;-76
2023/01/02 13:34:53;;;;;;;5.47;1.67;;;;;;;;;;5026133;28;20053;-76
2023/01/02 13:37:21;;;;;;;8.90;1.80;;;;;;;;;;5025840;28;20109;-78
2023/01/02 13:39:49;;;;;;;8.32;1.98;;;;;;;;;;5025425;28;20531;-78
2023/01/02 13:45:17;;;;;;;6.63;1.92;;;;;;;;;;5030437;28;20060;-78
2023/01/02 13:47:55;;;;;;;10.50;1.90;;;;;;;;;;5025656;28;20057;-78
2023/01/02 13:50:22;;;;;;;7.10;2.00;;;;;;;;;;5029970;28;20053;-78
2023/01/02 13:53:09;;;;;;;6.03;1.75;;;;;;;;;;5007828;28;20061;-78
2023/01/02 13:55:38;;;;;;;17.85;2.08;;;;;;;;;;4974651;28;20049;-78
2023/01/02 13:58:10;;;;;;;4.90;1.65;;;;;;;;;;5023938;28;20057;-77
2023/01/02 14:00:38;;;;;;;9.20;2.15;;;;;;;;;;5048231;28;20063;-77
2023/01/02 14:03:33;;;;;;;7.25;1.90;;;;;;;;;;5028837;28;20057;-78
2023/01/02 14:06:05;;;;;;;10.07;1.83;;;;;;;;;;5004160;28;20045;-77
2023/01/02 14:08:35;;;;;;;10.82;1.95;;;;;;;;;;5025372;28;20647;-77
2023/01/02 14:11:12;;;;;;;10.57;2.15;;;;;;;;;;5023255;28;20049;-79
2023/01/02 14:13:49;;;;;;;7.78;2.25;;;;;;;;;;5006686;28;20084;-78
2023/01/02 14:16:22;;;;;;;7.63;2.15;;;;;;;;;;5026937;28;20053;-78
2023/01/02 14:19:01;;;;;;;7.38;2.47;;;;;;;;;;5029142;28;20107;-79
2023/01/02 14:21:35;;;;;;;9.75;1.67;;;;;;;;;;5027401;28;20056;-78
2023/01/02 14:24:02;;;;;;;10.45;1.83;;;;;;;;;;5030277;28;20056;-78
2023/01/02 14:26:49;;;;;;;8.77;1.98;;;;;;;;;;5035648;28;20077;-77
2023/01/02 14:29:16;;;;;;;10.55;2.00;;;;;;;;;;5023538;28;20060;-78
2023/01/02 14:31:42;;;;;;;8.27;2.03;;;;;;;;;;5026187;28;20047;-78
2023/01/02 14:34:10;;;;;;;14.80;2.22;;;;;;;;;;5011856;28;20719;-78
2023/01/02 14:36:42;;;;;;;8.23;1.90;;;;;;;;;;5028797;28;20049;-79
2023/01/02 14:39:38;;;;;;;7.38;1.90;;;;;;;;;;5030042;28;20092;-78
2023/01/02 14:44:58;;;;;;;11.27;1.75;;;;;;;;;;5025588;28;20067;-75
2023/01/02 14:47:33;;;;;;;6.50;1.65;;;;;;;;;;5033193;28;20042;-79
2023/01/02 14:50:01;;;;;;;11.63;1.98;;;;;;;;;;5030546;28;20124;-78
2023/01/02 14:52:30;;;;;;;8.77;2.38;;;;;;;;;;5026452;28;20052;-78
2023/01/02 14:55:17;;;;;;;5.22;1.85;;;;;;;;;;5024629;28;20135;-78
2023/01/02 14:57:47;;;;;;;5.13;1.90;;;;;;;;;;5011618;28;20053;-77
2023/01/02 15:00:19;;;;;;;6.95;1.83;;;;;;;;;;5023610;28;20051;-78
2023/01/02 15:02:47;;;;;;;5.45;1.50;;;;;;;;;;5025886;28;20060;-78
2023/01/02 15:05:33;;;;;;;8.05;2.10;;;;;;;;;;5034586;28;20063;-78
2023/01/02 15:07:59;;;;;;;;;;;;;;;;;;5040664;28;20056;-78
2023/01/02 15:10:26;;;;;;;;;;;;;;;;;;5035891;28;20023;-78